createdAt,value
2018-11-21T00:02:19.555Z,18.20
2018-11-21T00:04:47.657Z,18.73
2018-11-21T00:07:15.811Z,18.53
2018-11-21T00:09:43.985Z,16.07
2018-11-21T00:12:12.552Z,18.57
2018-11-21T00:14:40.671Z,20.27
2018-11-21T00:17:08.787Z,20.67
2018-11-21T00:19:36.922Z,19.97
2018-11-21T00:22:05.270Z,18.73
2018-11-21T00:24:33.338Z,16.27
2018-11-21T00:27:01.741Z,18.50
2018-11-21T00:29:29.851Z,17.80
2018-11-21T00:31:58.074Z,19.90
2018-11-21T00:34:26.237Z,19.90
2018-11-21T00:36:54.382Z,19.33
2018-11-21T00:39:22.501Z,18.17
2018-11-21T00:41:51.000Z,19.93
2018-11-21T00:44:20.289Z,20.77
2018-11-21T00:46:48.374Z,20.00
2018-11-21T00:49:16.533Z,18.97
2018-11-21T00:51:44.769Z,17.30
2018-11-21T00:54:13.000Z,18.63
2018-11-21T00:56:41.155Z,18.97
2018-11-21T00:59:09.255Z,21.07
2018-11-21T01:01:37.454Z,17.47
2018-11-21T01:04:05.575Z,20.07
2018-11-21T01:06:33.788Z,18.60
2018-11-21T01:09:01.936Z,22.83
2018-11-21T01:11:30.045Z,20.07
2018-11-21T01:13:58.191Z,18.83
2018-11-21T01:16:26.932Z,19.20
2018-11-21T01:18:55.186Z,20.83
2018-11-21T01:21:23.659Z,21.00
2018-11-21T01:23:51.781Z,21.73
2018-11-21T01:26:20.409Z,18.30
2018-11-21T01:28:48.648Z,19.43
2018-11-21T01:31:16.875Z,20.17
2018-11-21T01:33:44.999Z,17.97
2018-11-21T01:36:13.122Z,20.07
2018-11-21T01:38:41.375Z,22.33
2018-11-21T01:41:09.555Z,20.77
2018-11-21T01:43:37.700Z,21.43
2018-11-21T01:46:06.465Z,20.30
2018-11-21T01:48:34.814Z,19.30
2018-11-21T01:51:02.973Z,20.60
2018-11-21T01:53:31.077Z,22.87
2018-11-21T01:55:59.184Z,18.77
2018-11-21T01:58:27.704Z,19.87
2018-11-21T02:00:55.796Z,18.40
2018-11-21T02:03:23.948Z,21.60
2018-11-21T02:05:52.075Z,23.00
2018-11-21T02:08:20.179Z,22.43
2018-11-21T02:10:48.485Z,20.13
2018-11-21T02:13:16.612Z,20.93
2018-11-21T02:15:44.760Z,21.77
2018-11-21T02:18:12.873Z,25.20
2018-11-21T02:20:41.022Z,21.37
2018-11-21T02:23:18.740Z,22.57
2018-11-21T02:25:40.876Z,22.63
2018-11-21T02:28:10.664Z,21.87
2018-11-21T02:30:39.137Z,21.07
2018-11-21T02:33:07.240Z,24.87
2018-11-21T02:35:35.357Z,23.47
2018-11-21T02:38:03.657Z,23.00
2018-11-21T02:40:31.790Z,23.13
2018-11-21T02:42:59.989Z,21.90
2018-11-21T02:45:28.139Z,21.97
2018-11-21T02:47:56.282Z,23.37
2018-11-21T02:50:24.507Z,24.27
2018-11-21T02:52:52.680Z,24.07
2018-11-21T02:55:20.800Z,23.47
2018-11-21T02:57:48.927Z,23.17
2018-11-21T03:00:19.394Z,24.87
2018-11-21T03:02:47.561Z,23.93
2018-11-21T03:05:16.046Z,25.37
2018-11-21T03:08:00.047Z,24.67
2018-11-21T03:10:28.406Z,21.33
2018-11-21T03:12:56.817Z,23.90
2018-11-21T03:15:24.953Z,24.53
2018-11-21T03:17:53.049Z,24.37
2018-11-21T03:20:21.406Z,25.93
2018-11-21T03:22:49.604Z,24.67
2018-11-21T03:25:18.073Z,27.47
2018-11-21T03:27:46.287Z,29.67
2018-11-21T03:30:14.459Z,27.23
2018-11-21T03:32:42.767Z,28.63
2018-11-21T03:35:11.318Z,24.73
2018-11-21T03:37:39.471Z,24.87
2018-11-21T03:40:09.545Z,23.80
2018-11-21T03:42:37.906Z,26.07
2018-11-21T03:45:08.085Z,26.23
2018-11-21T03:47:36.224Z,27.90
2018-11-21T03:50:05.818Z,28.90
2018-11-21T03:52:34.302Z,24.07
2018-11-21T03:55:02.416Z,21.97
2018-11-21T03:57:30.664Z,28.90
2018-11-21T03:59:58.797Z,25.93
2018-11-21T04:02:27.024Z,24.37
2018-11-21T04:04:55.161Z,26.50
2018-11-21T04:07:23.617Z,28.37
2018-11-21T04:09:51.804Z,26.50
2018-11-21T04:12:19.931Z,26.57
2018-11-21T04:14:48.290Z,25.23
2018-11-21T04:17:16.747Z,27.00
2018-11-21T04:19:44.921Z,26.57
2018-11-21T04:22:13.059Z,24.43
2018-11-21T04:24:41.260Z,26.63
2018-11-21T04:27:09.455Z,27.07
2018-11-21T04:29:37.946Z,24.23
2018-11-21T04:32:06.069Z,23.23
2018-11-21T04:34:34.255Z,27.63
2018-11-21T04:37:02.704Z,26.37
2018-11-21T04:39:30.838Z,25.87
2018-11-21T04:41:59.091Z,22.90
2018-11-21T04:44:27.187Z,25.97
2018-11-21T04:46:55.307Z,27.30
2018-11-21T04:49:23.423Z,24.97
2018-11-21T04:51:51.996Z,26.97
2018-11-21T04:54:20.220Z,24.17
2018-11-21T04:56:48.440Z,27.53
2018-11-21T04:59:16.588Z,25.87
2018-11-21T05:01:45.024Z,26.97
2018-11-21T05:04:13.164Z,27.57
2018-11-21T05:06:41.332Z,26.73
2018-11-21T05:09:13.179Z,27.73
2018-11-21T05:11:41.652Z,29.57
2018-11-21T05:14:09.861Z,32.23
2018-11-21T05:16:38.092Z,26.30
2018-11-21T05:19:06.264Z,28.17
2018-11-21T05:21:34.530Z,27.10
2018-11-21T05:24:02.653Z,26.90
2018-11-21T05:26:30.839Z,29.03
2018-11-21T05:28:59.074Z,27.53
2018-11-21T05:31:27.289Z,28.20
2018-11-21T05:33:55.410Z,27.27
2018-11-21T05:36:23.567Z,25.10
2018-11-21T05:38:51.696Z,30.00
2018-11-21T05:41:20.489Z,28.17
2018-11-21T05:43:48.978Z,31.93
2018-11-21T05:46:17.384Z,33.43
2018-11-21T05:48:45.849Z,31.60
2018-11-21T05:51:13.958Z,29.37
2018-11-21T05:53:42.128Z,30.47
2018-11-21T05:56:10.562Z,29.00
2018-11-21T05:58:39.014Z,29.77
2018-11-21T06:01:07.459Z,29.60
2018-11-21T06:03:35.569Z,31.27
2018-11-21T06:06:09.748Z,30.17
2018-11-21T06:08:31.873Z,31.07
2018-11-21T06:11:00.057Z,28.50
2018-11-21T06:13:28.115Z,28.90
2018-11-21T06:15:56.266Z,28.17
2018-11-21T06:18:24.394Z,32.33
2018-11-21T06:20:52.611Z,27.57
2018-11-21T06:23:21.442Z,29.57
2018-11-21T06:25:49.592Z,32.27
2018-11-21T06:28:17.757Z,26.40
2018-11-21T06:30:46.364Z,27.37
2018-11-21T06:33:14.597Z,29.80
2018-11-21T06:35:42.831Z,30.13
2018-11-21T06:38:10.935Z,32.57
2018-11-21T06:40:39.341Z,27.27
2018-11-21T06:43:07.558Z,30.87
2018-11-21T06:45:35.764Z,28.50
2018-11-21T06:48:03.962Z,30.87
2018-11-21T06:50:32.111Z,28.73
2018-11-21T06:53:01.031Z,29.20
2018-11-21T06:55:29.265Z,27.97
2018-11-21T06:58:02.351Z,30.17
2018-11-21T07:00:29.501Z,31.27
2018-11-21T07:02:57.803Z,28.47
2018-11-21T07:05:25.997Z,25.13
2018-11-21T07:07:54.104Z,27.70
2018-11-21T07:10:22.505Z,29.23
2018-11-21T07:12:50.945Z,27.10
2018-11-21T07:15:20.915Z,27.80
2018-11-21T07:17:49.295Z,30.07
2018-11-21T07:20:17.888Z,28.13
2018-11-21T07:22:46.024Z,29.30
2018-11-21T07:25:21.598Z,28.20
2018-11-21T07:27:49.922Z,28.77
2018-11-21T07:30:18.482Z,26.37
2018-11-21T07:32:46.772Z,29.30
2018-11-21T07:35:18.019Z,28.73
2018-11-21T07:38:30.859Z,28.37
2018-11-21T07:41:05.066Z,28.43
2018-11-21T07:43:33.586Z,28.50
2018-11-21T07:46:01.690Z,26.10
2018-11-21T07:48:44.638Z,26.70
2018-11-21T07:51:06.169Z,33.57
2018-11-21T07:53:45.512Z,28.07
2018-11-21T07:57:02.522Z,27.70
2018-11-21T07:59:31.310Z,25.70
2018-11-21T08:02:17.577Z,26.97
2018-11-21T08:04:50.039Z,29.83
2018-11-21T08:07:43.222Z,28.93
2018-11-21T08:10:28.958Z,28.37
2018-11-21T08:13:16.519Z,26.73
2018-11-21T08:19:11.429Z,26.33
2018-11-21T08:21:57.246Z,24.60
2018-11-21T08:24:43.392Z,29.33
2018-11-21T08:27:39.878Z,25.73
2018-11-21T08:30:08.015Z,28.30
2018-11-21T08:32:36.248Z,26.27
2018-11-21T08:35:04.716Z,28.40
2018-11-21T08:37:32.857Z,27.63
2018-11-21T08:40:01.242Z,25.50
2018-11-21T08:42:29.366Z,26.60
2018-11-21T08:44:57.915Z,26.87
2018-11-21T08:47:26.064Z,27.43
2018-11-21T08:49:54.150Z,25.83
2018-11-21T08:52:22.397Z,28.63
2018-11-21T08:54:50.942Z,26.57
2018-11-21T08:57:19.353Z,27.13
2018-11-21T08:59:47.479Z,26.50
2018-11-21T09:02:15.668Z,28.57
2018-11-21T09:04:43.835Z,25.57
2018-11-21T09:07:11.973Z,23.93
2018-11-21T09:09:40.104Z,26.57
2018-11-21T09:12:08.885Z,27.80
2018-11-21T09:14:36.670Z,27.30
2018-11-21T09:17:04.861Z,31.67
2018-11-21T09:19:32.987Z,23.20
2018-11-21T09:22:01.262Z,28.23
2018-11-21T09:24:29.746Z,24.70
2018-11-21T09:26:57.800Z,27.57
2018-11-21T09:29:26.375Z,23.67
2018-11-21T09:31:54.502Z,29.10
2018-11-21T09:34:22.785Z,25.50
2018-11-21T09:36:51.018Z,25.93
2018-11-21T09:39:19.158Z,26.67
2018-11-21T09:41:47.295Z,25.33
2018-11-21T09:44:15.497Z,25.73
2018-11-21T09:46:43.699Z,23.90
2018-11-21T09:49:11.805Z,25.87
2018-11-21T09:51:39.995Z,25.37
2018-11-21T09:54:08.121Z,24.23
2018-11-21T09:56:36.248Z,25.03
2018-11-21T09:59:04.791Z,25.70
2018-11-21T10:02:09.144Z,27.00
2018-11-21T10:04:37.238Z,26.70
2018-11-21T10:07:05.695Z,26.37
2018-11-21T10:09:39.462Z,23.67
2018-11-21T10:12:07.929Z,26.40
2018-11-21T10:14:36.061Z,26.47
2018-11-21T10:17:04.191Z,26.70
2018-11-21T10:19:32.375Z,23.43
2018-11-21T10:22:01.113Z,26.73
2018-11-21T10:24:29.373Z,25.53
2018-11-21T10:26:57.473Z,24.87
2018-11-21T10:29:26.041Z,22.53
2018-11-21T10:31:54.500Z,24.43
2018-11-21T10:34:22.593Z,28.10
2018-11-21T10:36:50.724Z,27.57
2018-11-21T10:39:18.925Z,22.77
2018-11-21T10:41:47.388Z,24.57
2018-11-21T10:44:16.114Z,26.57
2018-11-21T10:46:44.213Z,25.63
2018-11-21T10:49:12.711Z,24.70
2018-11-21T10:51:41.030Z,28.27
2018-11-21T10:54:09.256Z,27.37
2018-11-21T10:56:37.385Z,23.00
2018-11-21T10:59:05.676Z,26.57
2018-11-21T11:01:58.882Z,25.27
2018-11-21T11:04:49.626Z,28.10
2018-11-21T11:07:39.512Z,24.97
2018-11-21T11:10:22.407Z,25.57
2018-11-21T11:13:09.601Z,25.50
2018-11-21T11:16:05.755Z,24.23
2018-11-21T11:18:56.316Z,28.47
2018-11-21T11:21:49.979Z,24.40
2018-11-21T11:24:49.362Z,26.23
2018-11-21T11:27:39.562Z,24.23
2018-11-21T11:30:33.436Z,29.87
2018-11-21T11:33:20.844Z,28.37
2018-11-21T11:36:06.423Z,24.40
2018-11-21T11:38:54.330Z,24.67
2018-11-21T11:41:40.176Z,26.13
2018-11-21T11:44:26.257Z,26.40
2018-11-21T11:47:19.496Z,24.60
2018-11-21T11:50:00.850Z,26.50
2018-11-21T11:52:56.030Z,23.53
2018-11-21T11:55:41.724Z,23.93
2018-11-21T11:58:24.497Z,25.93
2018-11-21T12:01:03.441Z,26.13
2018-11-21T12:03:49.595Z,23.23
2018-11-21T12:06:42.628Z,24.47
2018-11-21T12:09:46.925Z,25.87
2018-11-21T12:12:47.756Z,28.93
2018-11-21T12:15:29.860Z,26.43
2018-11-21T12:18:35.295Z,27.00
2018-11-21T12:21:22.364Z,29.23
2018-11-21T12:24:03.473Z,25.47
2018-11-21T12:26:54.016Z,24.53
2018-11-21T12:29:56.583Z,25.70
2018-11-21T12:32:55.864Z,28.03
2018-11-21T12:35:46.317Z,24.80
2018-11-21T12:38:42.883Z,25.63
2018-11-21T12:41:28.601Z,25.30
2018-11-21T12:44:14.967Z,30.43
2018-11-21T12:47:02.246Z,27.57
2018-11-21T12:49:48.159Z,28.63
2018-11-21T12:52:38.336Z,26.77
2018-11-21T12:55:20.875Z,28.13
2018-11-21T12:58:11.347Z,24.67
2018-11-21T13:01:01.761Z,24.77
2018-11-21T13:03:39.836Z,27.90
2018-11-21T13:06:27.119Z,25.13
2018-11-21T13:09:32.611Z,28.00
2018-11-21T13:12:12.152Z,26.47
2018-11-21T13:14:53.940Z,26.97
2018-11-21T13:18:07.111Z,25.10
2018-11-21T13:20:57.343Z,24.80
2018-11-21T13:23:43.698Z,28.20
2018-11-21T13:26:29.693Z,25.27
2018-11-21T13:29:17.290Z,26.50
2018-11-21T13:32:11.919Z,29.00
2018-11-21T13:35:40.713Z,27.37
2018-11-21T13:38:26.824Z,27.00
2018-11-21T13:41:20.111Z,28.63
2018-11-21T13:43:56.871Z,27.50
2018-11-21T13:46:33.669Z,26.10
2018-11-21T13:49:20.988Z,27.40
2018-11-21T13:52:10.213Z,28.27
2018-11-21T13:54:55.510Z,27.83
2018-11-21T13:57:23.628Z,29.80
2018-11-21T14:00:03.587Z,26.60
2018-11-21T14:02:36.821Z,28.07
2018-11-21T14:05:03.736Z,24.33
2018-11-21T14:07:35.377Z,25.53
2018-11-21T14:10:06.919Z,27.87
2018-11-21T14:12:37.470Z,29.57
2018-11-21T14:15:09.330Z,29.40
2018-11-21T14:17:40.893Z,27.67
2018-11-21T14:20:10.811Z,29.90
2018-11-21T14:22:39.475Z,33.50
2018-11-21T14:25:09.375Z,27.73
2018-11-21T14:27:40.057Z,28.93
2018-11-21T14:30:16.138Z,30.43
2018-11-21T14:32:44.298Z,29.60
2018-11-21T14:35:13.905Z,28.57
2018-11-21T14:37:42.561Z,28.37
2018-11-21T14:40:13.088Z,26.50
2018-11-21T14:42:41.275Z,26.53
2018-11-21T14:45:11.838Z,25.20
2018-11-21T14:47:39.975Z,28.63
2018-11-21T14:50:28.653Z,29.40
2018-11-21T14:52:56.920Z,26.03
2018-11-21T14:55:25.374Z,26.33
2018-11-21T14:57:53.956Z,29.63
2018-11-21T15:00:22.748Z,25.10
2018-11-21T15:02:51.229Z,28.57
2018-11-21T15:05:19.852Z,28.50
2018-11-21T15:07:48.510Z,23.57
2018-11-21T15:10:16.623Z,26.63
2018-11-21T15:12:44.741Z,26.73
2018-11-21T15:15:18.486Z,26.43
2018-11-21T15:19:03.622Z,29.23
2018-11-21T15:21:17.493Z,30.27
2018-11-21T15:23:45.678Z,27.23
2018-11-21T15:26:14.028Z,27.87
2018-11-21T15:28:42.262Z,29.70
2018-11-21T15:31:10.373Z,30.43
2018-11-21T15:33:38.493Z,26.30
2018-11-21T15:36:06.876Z,26.00
2018-11-21T15:38:35.327Z,26.47
2018-11-21T15:41:03.458Z,30.73
2018-11-21T15:43:31.679Z,27.10
2018-11-21T15:45:59.834Z,28.03
2018-11-21T15:48:28.263Z,28.17
2018-11-21T15:50:57.084Z,32.07
2018-11-21T15:53:25.331Z,26.57
2018-11-21T15:55:53.476Z,28.80
2018-11-21T15:58:21.645Z,29.07
2018-11-21T16:00:52.811Z,29.83
2018-11-21T16:03:20.933Z,26.07
2018-11-21T16:05:49.133Z,27.30
2018-11-21T16:08:26.050Z,28.47
2018-11-21T16:10:54.043Z,27.90
2018-11-21T16:13:22.191Z,27.90
2018-11-21T16:15:52.291Z,29.50
2018-11-21T16:18:22.111Z,30.23
2018-11-21T16:20:50.425Z,30.23
2018-11-21T16:23:18.533Z,31.83
2018-11-21T16:25:46.832Z,30.07
2018-11-21T16:28:14.970Z,31.90
2018-11-21T16:31:01.060Z,29.60
2018-11-21T16:33:29.752Z,30.30
2018-11-21T16:35:57.997Z,28.83
2018-11-21T16:38:26.141Z,30.60
2018-11-21T16:40:54.438Z,31.23
2018-11-21T16:43:23.194Z,29.20
2018-11-21T16:45:53.340Z,29.23
2018-11-21T16:48:21.799Z,30.53
2018-11-21T16:50:49.971Z,30.77
2018-11-21T16:53:18.174Z,32.03
2018-11-21T16:55:46.366Z,34.37
2018-11-21T16:58:14.524Z,30.73
2018-11-21T17:00:42.963Z,33.33
2018-11-21T17:03:13.098Z,33.57
2018-11-21T17:05:41.434Z,33.40
2018-11-21T17:08:37.702Z,32.57
2018-11-21T17:10:52.234Z,35.90
2018-11-21T17:13:23.902Z,36.53
2018-11-21T17:15:52.420Z,32.83
2018-11-21T17:18:20.909Z,31.70
2018-11-21T17:20:50.057Z,36.40
2018-11-21T17:23:18.604Z,35.70
2018-11-21T17:25:46.755Z,35.67
2018-11-21T17:28:14.997Z,41.13
2018-11-21T17:30:44.033Z,36.43
2018-11-21T17:33:12.264Z,39.90
2018-11-21T17:35:40.597Z,37.30
2018-11-21T17:38:08.932Z,38.67
2018-11-21T17:40:42.885Z,43.47
2018-11-21T17:43:11.060Z,40.40
2018-11-21T17:45:39.169Z,42.43
2018-11-21T17:48:07.834Z,39.47
2018-11-21T17:50:36.281Z,38.00
2018-11-21T17:53:05.640Z,37.73
2018-11-21T17:55:34.826Z,40.27
2018-11-21T17:58:03.508Z,39.97
2018-11-21T18:00:32.227Z,40.43
2018-11-21T18:03:00.344Z,37.23
2018-11-21T18:05:33.336Z,35.27
2018-11-21T18:11:44.940Z,38.93
2018-11-21T18:14:13.377Z,40.97
2018-11-21T18:16:41.793Z,37.63
2018-11-21T18:19:09.988Z,43.33
2018-11-21T18:21:38.239Z,42.80
2018-11-21T18:24:06.407Z,40.20
2018-11-21T18:26:34.695Z,41.17
2018-11-21T18:29:03.071Z,36.60
2018-11-21T18:31:31.245Z,39.33
2018-11-21T18:33:59.364Z,39.50
2018-11-21T18:36:27.496Z,39.77
2018-11-21T18:38:56.021Z,40.20
2018-11-21T18:41:24.545Z,39.17
2018-11-21T18:43:56.326Z,41.13
2018-11-21T18:46:33.642Z,35.97
2018-11-21T18:49:03.075Z,37.37
2018-11-21T18:52:01.568Z,45.97
2018-11-21T18:55:27.729Z,39.03
2018-11-21T18:59:05.096Z,39.00
2018-11-21T19:01:34.288Z,41.87
2018-11-21T19:04:51.886Z,34.30
2018-11-21T19:07:26.236Z,38.77
2018-11-21T19:09:54.462Z,38.93
2018-11-21T19:12:22.616Z,40.23
2018-11-21T19:14:50.774Z,37.33
2018-11-21T19:17:18.907Z,35.80
2018-11-21T19:19:47.293Z,35.33
2018-11-21T19:22:15.734Z,36.47
2018-11-21T19:24:43.926Z,35.27
2018-11-21T19:27:12.503Z,34.20
2018-11-21T19:29:40.764Z,34.93
2018-11-21T19:32:10.113Z,31.67
2018-11-21T19:34:47.735Z,35.37
2018-11-21T19:37:16.347Z,32.27
2018-11-21T19:39:44.745Z,37.07
2018-11-21T19:42:12.893Z,34.77
2018-11-21T19:44:40.994Z,33.07
2018-11-21T19:47:09.150Z,36.20
2018-11-21T19:49:47.430Z,33.17
2018-11-21T19:52:15.699Z,36.23
2018-11-21T19:54:43.839Z,32.20
2018-11-21T19:57:12.237Z,35.33
2018-11-21T19:59:43.563Z,35.63
2018-11-21T20:02:08.537Z,40.13
2018-11-21T20:04:40.883Z,33.30
2018-11-21T20:07:24.249Z,33.20
2018-11-21T20:09:56.294Z,33.33
2018-11-21T20:12:24.463Z,31.00
2018-11-21T20:14:52.999Z,32.27
2018-11-21T20:17:21.605Z,32.10
2018-11-21T20:19:50.371Z,30.00
2018-11-21T20:22:18.497Z,31.60
2018-11-21T20:24:46.764Z,34.87
2018-11-21T20:27:15.508Z,30.20
2018-11-21T20:29:46.701Z,31.53
2018-11-21T20:32:13.437Z,31.23
2018-11-21T20:34:41.549Z,33.10
2018-11-21T20:37:09.750Z,33.63
2018-11-21T20:39:38.113Z,33.40
2018-11-21T20:42:06.470Z,31.90
2018-11-21T20:44:34.960Z,32.07
2018-11-21T20:47:03.637Z,31.70
2018-11-21T20:49:32.621Z,31.20
2018-11-21T20:52:01.022Z,29.63
2018-11-21T20:54:29.452Z,29.83
2018-11-21T20:56:57.827Z,32.87
2018-11-21T20:59:26.202Z,29.90
2018-11-21T21:01:54.647Z,28.03
2018-11-21T21:04:23.081Z,29.37
2018-11-21T21:06:53.942Z,32.63
2018-11-21T21:09:22.432Z,30.47
2018-11-21T21:11:51.154Z,29.53
2018-11-21T21:14:19.553Z,30.17
2018-11-21T21:16:48.047Z,31.43
2018-11-21T21:19:16.884Z,30.80
2018-11-21T21:21:44.798Z,31.30
2018-11-21T21:24:13.373Z,30.70
2018-11-21T21:26:41.502Z,32.23
2018-11-21T21:29:11.061Z,29.33
2018-11-21T21:31:39.476Z,32.30
2018-11-21T21:37:37.516Z,29.53
2018-11-21T21:40:11.245Z,31.33
2018-11-21T21:42:42.083Z,26.80
2018-11-21T21:45:10.121Z,30.23
2018-11-21T21:47:41.690Z,28.50
2018-11-21T21:50:08.289Z,31.60
2018-11-21T21:52:36.607Z,29.87
2018-11-21T21:55:05.370Z,27.97
2018-11-21T21:57:33.898Z,28.83
2018-11-21T22:00:03.125Z,28.80
2018-11-21T22:02:37.547Z,30.73
2018-11-21T22:05:09.817Z,28.53
2018-11-21T22:07:50.998Z,25.73
2018-11-21T22:10:26.625Z,29.80
2018-11-21T22:15:59.587Z,29.77
2018-11-21T22:18:30.743Z,28.87
2018-11-21T22:21:11.620Z,29.77
2018-11-21T22:23:53.953Z,31.00
2018-11-21T22:26:25.845Z,31.83
2018-11-21T22:29:00.108Z,27.27
2018-11-21T22:31:28.220Z,24.83
2018-11-21T22:33:56.805Z,30.23
2018-11-21T22:36:24.951Z,28.93
2018-11-21T22:38:53.203Z,27.00
2018-11-21T22:41:21.387Z,27.67
2018-11-21T22:43:49.659Z,28.47
2018-11-21T22:46:17.870Z,26.20
2018-11-21T22:48:46.019Z,29.97
2018-11-21T22:51:14.245Z,27.57
2018-11-21T22:53:42.465Z,28.60
2018-11-21T22:56:10.645Z,28.17
2018-11-21T22:58:38.762Z,28.97
